sensor_id;sensor_type;location;lat;lon;timestamp;pressure;altitude;pressure_sealevel;temperature
77599;BMP280;66758;52.078;5.070;2023-09-12T00:00:56;98976.75;;;20.32
77599;BMP280;66758;52.078;5.070;2023-09-12T00:03:23;98978.75;;;20.31
77599;BMP280;66758;52.078;5.070;2023-09-12T00:05:53;98970.25;;;20.25
77599;BMP280;66758;52.078;5.070;2023-09-12T00:08:18;98960.53;;;20.21
77599;BMP280;66758;52.078;5.070;2023-09-12T00:10:44;98960.75;;;20.08
77599;BMP280;66758;52.078;5.070;2023-09-12T00:13:10;98952.38;;;20.17
77599;BMP280;66758;52.078;5.070;2023-09-12T00:15:35;98947.44;;;20.12
77599;BMP280;66758;52.078;5.070;2023-09-12T00:18:01;98952.09;;;20.06
77599;BMP280;66758;52.078;5.070;2023-09-12T00:20:26;98943.44;;;20.04
77599;BMP280;66758;52.078;5.070;2023-09-12T00:22:53;98933.09;;;20.05
77599;BMP280;66758;52.078;5.070;2023-09-12T00:25:22;98920.16;;;20.02
77599;BMP280;66758;52.078;5.070;2023-09-12T00:27:47;98909.78;;;20.11
77599;BMP280;66758;52.078;5.070;2023-09-12T00:30:16;98913.22;;;19.97
77599;BMP280;66758;52.078;5.070;2023-09-12T00:32:41;98922.19;;;19.92
77599;BMP280;66758;52.078;5.070;2023-09-12T00:35:07;98924.66;;;19.90
77599;BMP280;66758;52.078;5.070;2023-09-12T00:37:32;98906.91;;;19.88
77599;BMP280;66758;52.078;5.070;2023-09-12T00:39:58;98911.56;;;19.91
77599;BMP280;66758;52.078;5.070;2023-09-12T00:42:27;98902.72;;;19.92
77599;BMP280;66758;52.078;5.070;2023-09-12T00:44:52;98900.25;;;19.94
77599;BMP280;66758;52.078;5.070;2023-09-12T00:47:18;98909.41;;;19.86
77599;BMP280;66758;52.078;5.070;2023-09-12T00:49:46;98903.06;;;19.85
77599;BMP280;66758;52.078;5.070;2023-09-12T00:52:12;98909.41;;;19.76
77599;BMP280;66758;52.078;5.070;2023-09-12T00:54:39;98897.22;;;19.74
77599;BMP280;66758;52.078;5.070;2023-09-12T00:57:04;98905.69;;;19.79
77599;BMP280;66758;52.078;5.070;2023-09-12T00:59:30;98898.28;;;19.86
77599;BMP280;66758;52.078;5.070;2023-09-12T01:01:56;98897.94;;;19.93
77599;BMP280;66758;52.078;5.070;2023-09-12T01:04:21;98916.97;;;19.85
77599;BMP280;66758;52.078;5.070;2023-09-12T01:06:47;98911.56;;;19.91
77599;BMP280;66758;52.078;5.070;2023-09-12T01:09:13;98911.69;;;19.87
77599;BMP280;66758;52.078;5.070;2023-09-12T01:11:39;98910.03;;;19.81
77599;BMP280;66758;52.078;5.070;2023-09-12T01:14:06;98909.41;;;19.76
77599;BMP280;66758;52.078;5.070;2023-09-12T01:16:31;98920.81;;;19.69
77599;BMP280;66758;52.078;5.070;2023-09-12T01:18:57;98930.72;;;19.70
77599;BMP280;66758;52.078;5.070;2023-09-12T01:21:41;98930.88;;;19.67
77599;BMP280;66758;52.078;5.070;2023-09-12T01:27:27;98918.81;;;19.70
77599;BMP280;66758;52.078;5.070;2023-09-12T01:29:57;98910.19;;;19.68
77599;BMP280;66758;52.078;5.070;2023-09-12T01:32:26;98905.56;;;19.65
77599;BMP280;66758;52.078;5.070;2023-09-12T01:34:52;98915.44;;;19.57
77599;BMP280;66758;52.078;5.070;2023-09-12T01:37:17;98927.50;;;19.54
77599;BMP280;66758;52.078;5.070;2023-09-12T01:39:43;98931.50;;;19.53
77599;BMP280;66758;52.078;5.070;2023-09-12T01:42:14;98927.81;;;19.47
77599;BMP280;66758;52.078;5.070;2023-09-12T01:44:42;98927.34;;;19.48
77599;BMP280;66758;52.078;5.070;2023-09-12T01:47:10;98924.88;;;19.50
77599;BMP280;66758;52.078;5.070;2023-09-12T01:49:39;98926.25;;;19.55
77599;BMP280;66758;52.078;5.070;2023-09-12T01:52:07;98934.28;;;19.62
77599;BMP280;66758;52.078;5.070;2023-09-12T01:54:33;98940.28;;;19.60
77599;BMP280;66758;52.078;5.070;2023-09-12T01:57:00;98961.44;;;19.58
77599;BMP280;66758;52.078;5.070;2023-09-12T01:59:26;98964.66;;;19.56
77599;BMP280;66758;52.078;5.070;2023-09-12T02:01:54;98958.22;;;19.59
77599;BMP280;66758;52.078;5.070;2023-09-12T02:04:19;98953.72;;;19.62
77599;BMP280;66758;52.078;5.070;2023-09-12T02:06:45;98972.38;;;19.61
77599;BMP280;66758;52.078;5.070;2023-09-12T02:09:10;98997.09;;;19.68
77599;BMP280;66758;52.078;5.070;2023-09-12T02:11:35;98994.00;;;19.75
77599;BMP280;66758;52.078;5.070;2023-09-12T02:14:01;98985.50;;;19.79
77599;BMP280;66758;52.078;5.070;2023-09-12T02:16:26;98984.25;;;19.89
77599;BMP280;66758;52.078;5.070;2023-09-12T02:18:51;98972.69;;;19.91
77599;BMP280;66758;52.078;5.070;2023-09-12T02:21:17;98978.09;;;19.85
77599;BMP280;66758;52.078;5.070;2023-09-12T02:23:42;98977.47;;;19.81
77599;BMP280;66758;52.078;5.070;2023-09-12T02:26:08;98994.94;;;19.72
77599;BMP280;66758;52.078;5.070;2023-09-12T02:28:33;98996.31;;;19.68
77599;BMP280;66758;52.078;5.070;2023-09-12T02:30:58;98991.38;;;19.63
77599;BMP280;66758;52.078;5.070;2023-09-12T02:33:24;98997.53;;;19.58
77599;BMP280;66758;52.078;5.070;2023-09-12T02:35:49;98996.00;;;19.57
77599;BMP280;66758;52.078;5.070;2023-09-12T02:38:15;98989.53;;;19.51
77599;BMP280;66758;52.078;5.070;2023-09-12T02:40:41;98989.38;;;19.54
77599;BMP280;66758;52.078;5.070;2023-09-12T02:43:06;98981.19;;;19.51
77599;BMP280;66758;52.078;5.070;2023-09-12T02:45:32;98974.53;;;19.48
77599;BMP280;66758;52.078;5.070;2023-09-12T02:47:58;98978.53;;;19.47
77599;BMP280;66758;52.078;5.070;2023-09-12T02:50:23;98991.38;;;19.45
77599;BMP280;66758;52.078;5.070;2023-09-12T02:52:49;98998.63;;;19.42
77599;BMP280;66758;52.078;5.070;2023-09-12T02:55:14;99001.69;;;19.44
77599;BMP280;66758;52.078;5.070;2023-09-12T02:57:40;99006.19;;;19.42
77599;BMP280;66758;52.078;5.070;2023-09-12T03:00:05;99018.50;;;19.41
77599;BMP280;66758;52.078;5.070;2023-09-12T03:02:33;99015.28;;;19.42
77599;BMP280;66758;52.078;5.070;2023-09-12T03:04:59;99029.94;;;19.33
77599;BMP280;66758;52.078;5.070;2023-09-12T03:07:24;99034.09;;;19.29
77599;BMP280;66758;52.078;5.070;2023-09-12T03:09:50;99023.72;;;19.29
77599;BMP280;66758;52.078;5.070;2023-09-12T03:12:15;99032.81;;;19.21
77599;BMP280;66758;52.078;5.070;2023-09-12T03:14:41;99055.50;;;19.19
77599;BMP280;66758;52.078;5.070;2023-09-12T03:17:06;99067.50;;;19.16
77599;BMP280;66758;52.078;5.070;2023-09-12T03:19:32;99064.72;;;19.16
77599;BMP280;66758;52.078;5.070;2023-09-12T03:21:58;99073.69;;;19.20
77599;BMP280;66758;52.078;5.070;2023-09-12T03:24:24;99126.75;;;19.22
77599;BMP280;66758;52.078;5.070;2023-09-12T03:26:51;99245.97;;;19.26
77599;BMP280;66758;52.078;5.070;2023-09-12T03:29:16;99249.44;;;19.39
77599;BMP280;66758;52.078;5.070;2023-09-12T03:31:41;99224.53;;;19.57
77599;BMP280;66758;52.078;5.070;2023-09-12T03:34:07;99232.13;;;19.66
77599;BMP280;66758;52.078;5.070;2023-09-12T03:36:32;99197.00;;;19.81
77599;BMP280;66758;52.078;5.070;2023-09-12T03:38:58;99222.03;;;19.90
77599;BMP280;66758;52.078;5.070;2023-09-12T03:41:23;99242.53;;;19.84
77599;BMP280;66758;52.078;5.070;2023-09-12T03:43:53;99268.19;;;19.88
77599;BMP280;66758;52.078;5.070;2023-09-12T03:46:19;99292.75;;;19.89
77599;BMP280;66758;52.078;5.070;2023-09-12T03:48:45;99297.66;;;19.85
77599;BMP280;66758;52.078;5.070;2023-09-12T03:51:11;99294.28;;;19.90
77599;BMP280;66758;52.078;5.070;2023-09-12T03:53:36;99282.56;;;19.86
77599;BMP280;66758;52.078;5.070;2023-09-12T03:56:02;99258.78;;;19.94
77599;BMP280;66758;52.078;5.070;2023-09-12T03:58:27;99247.66;;;19.85
77599;BMP280;66758;52.078;5.070;2023-09-12T04:00:54;99227.59;;;19.90
77599;BMP280;66758;52.078;5.070;2023-09-12T04:03:20;99211.81;;;19.87
77599;BMP280;66758;52.078;5.070;2023-09-12T04:05:46;99184.97;;;19.93
77599;BMP280;66758;52.078;5.070;2023-09-12T04:08:12;99171.38;;;19.95
77599;BMP280;66758;52.078;5.070;2023-09-12T04:10:38;99170.47;;;19.89
77599;BMP280;66758;52.078;5.070;2023-09-12T04:13:03;99164.91;;;19.89
77599;BMP280;66758;52.078;5.070;2023-09-12T04:15:29;99159.34;;;19.98
77599;BMP280;66758;52.078;5.070;2023-09-12T04:17:54;99151.91;;;19.95
77599;BMP280;66758;52.078;5.070;2023-09-12T04:20:21;99151.31;;;19.91
77599;BMP280;66758;52.078;5.070;2023-09-12T04:22:46;99135.88;;;19.90
77599;BMP280;66758;52.078;5.070;2023-09-12T04:25:11;99118.44;;;19.90
77599;BMP280;66758;52.078;5.070;2023-09-12T04:27:37;99117.94;;;19.91
77599;BMP280;66758;52.078;5.070;2023-09-12T04:30:03;99098.19;;;19.89
77599;BMP280;66758;52.078;5.070;2023-09-12T04:32:29;99097.09;;;19.87
77599;BMP280;66758;52.078;5.070;2023-09-12T04:34:54;99107.75;;;19.88
77599;BMP280;66758;52.078;5.070;2023-09-12T04:37:19;99111.66;;;19.91
77599;BMP280;66758;52.078;5.070;2023-09-12T04:39:45;99097.59;;;19.85
77599;BMP280;66758;52.078;5.070;2023-09-12T04:42:10;99097.59;;;19.85
77599;BMP280;66758;52.078;5.070;2023-09-12T04:44:38;99064.22;;;19.85
77599;BMP280;66758;52.078;5.070;2023-09-12T04:47:04;98955.53;;;19.83
77599;BMP280;66758;52.078;5.070;2023-09-12T04:49:30;98935.31;;;19.83
77599;BMP280;66758;52.078;5.070;2023-09-12T04:51:55;98933.31;;;19.83
77599;BMP280;66758;52.078;5.070;2023-09-12T04:54:20;98932.41;;;19.77
77599;BMP280;66758;52.078;5.070;2023-09-12T04:56:46;98938.41;;;19.75
77599;BMP280;66758;52.078;5.070;2023-09-12T04:59:12;98927.16;;;19.79
77599;BMP280;66758;52.078;5.070;2023-09-12T05:01:38;98926.25;;;19.73
77599;BMP280;66758;52.078;5.070;2023-09-12T05:04:03;98920.69;;;19.73
77599;BMP280;66758;52.078;5.070;2023-09-12T05:06:29;98926.25;;;19.73
77599;BMP280;66758;52.078;5.070;2023-09-12T05:08:54;98930.72;;;19.70
77599;BMP280;66758;52.078;5.070;2023-09-12T05:11:22;98923.16;;;19.71
77599;BMP280;66758;52.078;5.070;2023-09-12T05:13:48;98922.97;;;19.74
77599;BMP280;66758;52.078;5.070;2023-09-12T05:16:13;98937.03;;;19.71
77599;BMP280;66758;52.078;5.070;2023-09-12T05:18:38;98934.88;;;19.66
77599;BMP280;66758;52.078;5.070;2023-09-12T05:21:04;98940.88;;;19.73
77599;BMP280;66758;52.078;5.070;2023-09-12T05:23:29;98931.03;;;19.72
77599;BMP280;66758;52.078;5.070;2023-09-12T05:25:55;98921.59;;;19.79
77599;BMP280;66758;52.078;5.070;2023-09-12T05:28:20;98920.97;;;19.75
77599;BMP280;66758;52.078;5.070;2023-09-12T05:30:46;98909.41;;;19.86
77599;BMP280;66758;52.078;5.070;2023-09-12T05:33:11;98914.75;;;19.98
77599;BMP280;66758;52.078;5.070;2023-09-12T05:35:37;98913.06;;;19.92
77599;BMP280;66758;52.078;5.070;2023-09-12T05:38:03;98907.69;;;19.88
77599;BMP280;66758;52.078;5.070;2023-09-12T05:40:28;98916.00;;;19.88
77599;BMP280;66758;52.078;5.070;2023-09-12T05:42:54;98911.66;;;19.96
77599;BMP280;66758;52.078;5.070;2023-09-12T05:45:19;98918.41;;;20.13
77599;BMP280;66758;52.078;5.070;2023-09-12T05:47:45;98915.00;;;20.18
77599;BMP280;66758;52.078;5.070;2023-09-12T05:50:11;98937.88;;;20.04
77599;BMP280;66758;52.078;5.070;2023-09-12T05:52:37;98939.59;;;20.02
77599;BMP280;66758;52.078;5.070;2023-09-12T05:55:03;98941.28;;;20.08
77599;BMP280;66758;52.078;5.070;2023-09-12T05:57:29;98935.22;;;20.28
77599;BMP280;66758;52.078;5.070;2023-09-12T05:59:58;98952.34;;;20.27
77599;BMP280;66758;52.078;5.070;2023-09-12T06:02:25;98964.38;;;20.33
77599;BMP280;66758;52.078;5.070;2023-09-12T06:04:51;98979.88;;;20.24
77599;BMP280;66758;52.078;5.070;2023-09-12T06:07:16;98978.41;;;20.38
77599;BMP280;66758;52.078;5.070;2023-09-12T06:09:42;98989.88;;;20.31
77599;BMP280;66758;52.078;5.070;2023-09-12T06:12:07;98996.81;;;20.36
77599;BMP280;66758;52.078;5.070;2023-09-12T06:14:33;99002.38;;;20.36
77599;BMP280;66758;52.078;5.070;2023-09-12T06:16:58;98980.13;;;20.36
77599;BMP280;66758;52.078;5.070;2023-09-12T06:19:24;99000.06;;;20.34
77599;BMP280;66758;52.078;5.070;2023-09-12T06:21:50;99022.91;;;20.38
77599;BMP280;66758;52.078;5.070;2023-09-12T06:24:19;99022.47;;;20.31
77599;BMP280;66758;52.078;5.070;2023-09-12T06:26:44;99030.66;;;20.34
77599;BMP280;66758;52.078;5.070;2023-09-12T06:29:10;99039.28;;;20.45
77599;BMP280;66758;52.078;5.070;2023-09-12T06:31:35;99039.41;;;20.51
77599;BMP280;66758;52.078;5.070;2023-09-12T06:34:01;99038.44;;;20.63
77599;BMP280;66758;52.078;5.070;2023-09-12T06:36:27;99046.84;;;20.54
77599;BMP280;66758;52.078;5.070;2023-09-12T06:38:56;99057.03;;;20.57
77599;BMP280;66758;52.078;5.070;2023-09-12T06:41:22;99074.19;;;20.46
77599;BMP280;66758;52.078;5.070;2023-09-12T06:43:47;99064.31;;;20.54
77599;BMP280;66758;52.078;5.070;2023-09-12T06:46:13;99072.78;;;20.51
77599;BMP280;66758;52.078;5.070;2023-09-12T06:48:39;99073.28;;;20.49
77599;BMP280;66758;52.078;5.070;2023-09-12T06:51:05;99081.00;;;20.45
77599;BMP280;66758;52.078;5.070;2023-09-12T06:53:31;99072.31;;;20.52
77599;BMP280;66758;52.078;5.070;2023-09-12T06:55:57;99087.81;;;20.44
77599;BMP280;66758;52.078;5.070;2023-09-12T06:58:24;99087.00;;;20.53
77599;BMP280;66758;52.078;5.070;2023-09-12T07:00:49;99096.88;;;20.63
77599;BMP280;66758;52.078;5.070;2023-09-12T07:03:15;99102.28;;;20.66
77599;BMP280;66758;52.078;5.070;2023-09-12T07:05:41;99093.78;;;20.70
77599;BMP280;66758;52.078;5.070;2023-09-12T07:08:07;99103.34;;;20.69
77599;BMP280;66758;52.078;5.070;2023-09-12T07:10:33;99109.22;;;20.71
77599;BMP280;66758;52.078;5.070;2023-09-12T07:12:59;99115.66;;;20.77
77599;BMP280;66758;52.078;5.070;2023-09-12T07:15:24;99109.28;;;20.86
77599;BMP280;66758;52.078;5.070;2023-09-12T07:17:50;99111.28;;;20.94
77599;BMP280;66758;52.078;5.070;2023-09-12T07:20:15;99117.09;;;21.05
77599;BMP280;66758;52.078;5.070;2023-09-12T07:22:43;99115.09;;;21.39
77599;BMP280;66758;52.078;5.070;2023-09-12T07:25:09;99094.16;;;21.67
77599;BMP280;66758;52.078;5.070;2023-09-12T07:27:37;99132.16;;;21.55
77599;BMP280;66758;52.078;5.070;2023-09-12T07:30:04;99220.69;;;21.60
77599;BMP280;66758;52.078;5.070;2023-09-12T07:32:29;99238.34;;;21.57
77599;BMP280;66758;52.078;5.070;2023-09-12T07:34:54;99266.63;;;21.65
77599;BMP280;66758;52.078;5.070;2023-09-12T07:37:20;99290.03;;;21.67
77599;BMP280;66758;52.078;5.070;2023-09-12T07:39:45;99300.56;;;21.96
77599;BMP280;66758;52.078;5.070;2023-09-12T07:42:11;99324.91;;;21.96
77599;BMP280;66758;52.078;5.070;2023-09-12T07:44:36;99337.25;;;22.28
77599;BMP280;66758;52.078;5.070;2023-09-12T07:47:01;99372.28;;;22.29
77599;BMP280;66758;52.078;5.070;2023-09-12T07:49:27;99387.31;;;22.55
77599;BMP280;66758;52.078;5.070;2023-09-12T07:51:52;99418.25;;;22.66
77599;BMP280;66758;52.078;5.070;2023-09-12T07:54:19;99465.06;;;22.71
77599;BMP280;66758;52.078;5.070;2023-09-12T07:56:44;99531.44;;;22.76
77599;BMP280;66758;52.078;5.070;2023-09-12T07:59:10;99595.25;;;22.92
77599;BMP280;66758;52.078;5.070;2023-09-12T08:01:39;99679.66;;;22.96
77599;BMP280;66758;52.078;5.070;2023-09-12T08:04:04;99763.47;;;22.96
77599;BMP280;66758;52.078;5.070;2023-09-12T08:06:30;99831.91;;;23.52
77599;BMP280;66758;52.078;5.070;2023-09-12T08:08:56;100005.28;;;23.16
77599;BMP280;66758;52.078;5.070;2023-09-12T08:11:21;100099.41;;;23.55
77599;BMP280;66758;52.078;5.070;2023-09-12T08:13:49;100274.72;;;23.36
77599;BMP280;66758;52.078;5.070;2023-09-12T08:16:15;100396.69;;;22.90
77599;BMP280;66758;52.078;5.070;2023-09-12T08:18:40;100437.16;;;23.07
77599;BMP280;66758;52.078;5.070;2023-09-12T08:21:05;100478.81;;;23.15
77599;BMP280;66758;52.078;5.070;2023-09-12T08:23:31;100550.47;;;23.21
77599;BMP280;66758;52.078;5.070;2023-09-12T08:25:57;100593.53;;;23.24
77599;BMP280;66758;52.078;5.070;2023-09-12T08:28:22;100634.41;;;23.30
77599;BMP280;66758;52.078;5.070;2023-09-12T08:30:47;100675.03;;;23.22
77599;BMP280;66758;52.078;5.070;2023-09-12T08:33:13;100694.16;;;23.24
77599;BMP280;66758;52.078;5.070;2023-09-12T08:35:38;100736.19;;;23.33
77599;BMP280;66758;52.078;5.070;2023-09-12T08:38:04;100780.69;;;23.40
77599;BMP280;66758;52.078;5.070;2023-09-12T08:40:30;100820.28;;;23.26
77599;BMP280;66758;52.078;5.070;2023-09-12T08:42:57;100805.53;;;23.38
77599;BMP280;66758;52.078;5.070;2023-09-12T08:45:23;100814.38;;;23.24
77599;BMP280;66758;52.078;5.070;2023-09-12T08:47:55;100795.91;;;23.14
77599;BMP280;66758;52.078;5.070;2023-09-12T08:50:22;100789.28;;;23.07
77599;BMP280;66758;52.078;5.070;2023-09-12T08:52:49;100773.78;;;23.32
77599;BMP280;66758;52.078;5.070;2023-09-12T08:55:14;100823.97;;;23.48
77599;BMP280;66758;52.078;5.070;2023-09-12T08:57:42;100848.00;;;23.96
77599;BMP280;66758;52.078;5.070;2023-09-12T09:00:08;100951.78;;;23.89
77599;BMP280;66758;52.078;5.070;2023-09-12T09:02:36;101028.91;;;24.53
77599;BMP280;66758;52.078;5.070;2023-09-12T09:05:04;101154.00;;;24.05
77599;BMP280;66758;52.078;5.070;2023-09-12T09:07:38;101228.31;;;24.23
77599;BMP280;66758;52.078;5.070;2023-09-12T09:10:05;101307.22;;;24.34
77599;BMP280;66758;52.078;5.070;2023-09-12T09:12:33;101368.59;;;24.12
77599;BMP280;66758;52.078;5.070;2023-09-12T09:14:58;101349.78;;;24.13
77599;BMP280;66758;52.078;5.070;2023-09-12T09:17:25;101366.84;;;24.76
77599;BMP280;66758;52.078;5.070;2023-09-12T09:19:51;101489.72;;;24.48
77599;BMP280;66758;52.078;5.070;2023-09-12T09:22:16;101520.34;;;24.72
77599;BMP280;66758;52.078;5.070;2023-09-12T09:24:42;101597.66;;;24.69
77599;BMP280;66758;52.078;5.070;2023-09-12T09:27:07;101585.56;;;24.72
77599;BMP280;66758;52.078;5.070;2023-09-12T09:29:45;101630.50;;;24.69
77599;BMP280;66758;52.078;5.070;2023-09-12T09:32:17;101569.81;;;25.64
77599;BMP280;66758;52.078;5.070;2023-09-12T09:34:42;101763.78;;;25.54
77599;BMP280;66758;52.078;5.070;2023-09-12T09:37:09;101821.06;;;25.40
77599;BMP280;66758;52.078;5.070;2023-09-12T09:39:34;101825.28;;;25.32
77599;BMP280;66758;52.078;5.070;2023-09-12T09:42:00;101807.50;;;25.84
77599;BMP280;66758;52.078;5.070;2023-09-12T09:44:26;101992.13;;;25.28
77599;BMP280;66758;52.078;5.070;2023-09-12T09:46:59;102016.09;;;25.68
77599;BMP280;66758;52.078;5.070;2023-09-12T09:49:30;102025.78;;;25.47
77599;BMP280;66758;52.078;5.070;2023-09-12T09:51:56;102007.38;;;25.27
77599;BMP280;66758;52.078;5.070;2023-09-12T09:54:25;101934.06;;;25.77
77599;BMP280;66758;52.078;5.070;2023-09-12T09:56:55;101951.97;;;25.31
77599;BMP280;66758;52.078;5.070;2023-09-12T09:59:25;101900.63;;;25.66
77599;BMP280;66758;52.078;5.070;2023-09-12T10:01:55;101935.44;;;25.52
77599;BMP280;66758;52.078;5.070;2023-09-12T10:04:22;101893.75;;;25.35
77599;BMP280;66758;52.078;5.070;2023-09-12T10:06:49;101863.09;;;24.92
77599;BMP280;66758;52.078;5.070;2023-09-12T10:09:16;101821.06;;;25.24
77599;BMP280;66758;52.078;5.070;2023-09-12T10:11:43;101776.97;;;25.25
77599;BMP280;66758;52.078;5.070;2023-09-12T10:14:11;101748.13;;;25.08
77599;BMP280;66758;52.078;5.070;2023-09-12T10:16:48;101738.81;;;25.27
77599;BMP280;66758;52.078;5.070;2023-09-12T10:19:22;101805.91;;;25.38
77599;BMP280;66758;52.078;5.070;2023-09-12T10:22:12;101854.81;;;25.85
77599;BMP280;66758;52.078;5.070;2023-09-12T10:24:39;101921.28;;;26.04
77599;BMP280;66758;52.078;5.070;2023-09-12T10:27:05;101985.59;;;27.43
77599;BMP280;66758;52.078;5.070;2023-09-12T10:29:31;102287.34;;;28.49
77599;BMP280;66758;52.078;5.070;2023-09-12T10:31:57;102266.69;;;28.65
77599;BMP280;66758;52.078;5.070;2023-09-12T10:34:24;101325.56;;;28.95
77599;BMP280;66758;52.078;5.070;2023-09-12T10:36:50;97337.59;;;28.60
77599;BMP280;66758;52.078;5.070;2023-09-12T10:39:19;97866.41;;;28.82
77599;BMP280;66758;52.078;5.070;2023-09-12T10:41:46;98331.03;;;29.06
77599;BMP280;66758;52.078;5.070;2023-09-12T10:44:16;99014.66;;;28.44
77599;BMP280;66758;52.078;5.070;2023-09-12T10:46:43;99625.25;;;28.54
77599;BMP280;66758;52.078;5.070;2023-09-12T10:49:11;99922.03;;;29.38
77599;BMP280;66758;52.078;5.070;2023-09-12T10:51:41;99479.31;;;29.59
77599;BMP280;66758;52.078;5.070;2023-09-12T10:54:12;99594.28;;;29.58
77599;BMP280;66758;52.078;5.070;2023-09-12T10:56:38;99974.19;;;30.33
77599;BMP280;66758;52.078;5.070;2023-09-12T11:01:34;101059.78;;;31.67
77599;BMP280;66758;52.078;5.070;2023-09-12T11:06:43;100933.00;;;30.52
77599;BMP280;66758;52.078;5.070;2023-09-12T11:11:43;101203.41;;;31.56
77599;BMP280;66758;52.078;5.070;2023-09-12T11:14:09;101250.03;;;32.12
77599;BMP280;66758;52.078;5.070;2023-09-12T11:16:35;101313.50;;;34.08
77599;BMP280;66758;52.078;5.070;2023-09-12T11:19:21;101366.66;;;33.41
77599;BMP280;66758;52.078;5.070;2023-09-12T11:21:50;101388.22;;;32.74
77599;BMP280;66758;52.078;5.070;2023-09-12T11:24:17;101070.66;;;27.61
77599;BMP280;66758;52.078;5.070;2023-09-12T11:27:00;101175.28;;;29.76
77599;BMP280;66758;52.078;5.070;2023-09-12T11:29:37;101253.06;;;30.85
77599;BMP280;66758;52.078;5.070;2023-09-12T11:32:03;101185.97;;;30.16
77599;BMP280;66758;52.078;5.070;2023-09-12T11:34:51;101177.19;;;29.03
77599;BMP280;66758;52.078;5.070;2023-09-12T11:37:26;101125.91;;;29.72
77599;BMP280;66758;52.078;5.070;2023-09-12T11:39:54;101207.88;;;30.21
77599;BMP280;66758;52.078;5.070;2023-09-12T11:42:19;101178.53;;;30.19
77599;BMP280;66758;52.078;5.070;2023-09-12T11:44:48;101224.66;;;30.59
77599;BMP280;66758;52.078;5.070;2023-09-12T11:47:14;101144.97;;;28.47
77599;BMP280;66758;52.078;5.070;2023-09-12T11:49:41;101126.59;;;29.37
77599;BMP280;66758;52.078;5.070;2023-09-12T11:52:11;100997.06;;;28.10
77599;BMP280;66758;52.078;5.070;2023-09-12T11:54:39;100968.06;;;28.57
77599;BMP280;66758;52.078;5.070;2023-09-12T11:57:07;100978.09;;;28.58
77599;BMP280;66758;52.078;5.070;2023-09-12T11:59:36;100984.38;;;28.53
77599;BMP280;66758;52.078;5.070;2023-09-12T12:02:05;101050.00;;;28.92
77599;BMP280;66758;52.078;5.070;2023-09-12T12:04:31;101041.63;;;28.20
77599;BMP280;66758;52.078;5.070;2023-09-12T12:06:57;101013.09;;;28.27
77599;BMP280;66758;52.078;5.070;2023-09-12T12:09:22;101010.97;;;28.13
77599;BMP280;66758;52.078;5.070;2023-09-12T12:11:48;101035.00;;;28.71
77599;BMP280;66758;52.078;5.070;2023-09-12T12:14:15;101043.47;;;27.49
77599;BMP280;66758;52.078;5.070;2023-09-12T12:16:42;100976.81;;;28.20
77599;BMP280;66758;52.078;5.070;2023-09-12T12:19:11;100950.47;;;27.76
77599;BMP280;66758;52.078;5.070;2023-09-12T12:21:40;100989.03;;;28.41
77599;BMP280;66758;52.078;5.070;2023-09-12T12:24:10;100984.91;;;28.66
77599;BMP280;66758;52.078;5.070;2023-09-12T12:26:36;101075.34;;;29.44
77599;BMP280;66758;52.078;5.070;2023-09-12T12:29:03;101132.59;;;29.16
77599;BMP280;66758;52.078;5.070;2023-09-12T12:31:29;101139.56;;;28.82
77599;BMP280;66758;52.078;5.070;2023-09-12T12:33:55;101099.34;;;27.92
77599;BMP280;66758;52.078;5.070;2023-09-12T12:36:21;101083.13;;;28.44
77599;BMP280;66758;52.078;5.070;2023-09-12T12:38:48;101082.09;;;28.32
77599;BMP280;66758;52.078;5.070;2023-09-12T12:41:15;101130.16;;;28.61
77599;BMP280;66758;52.078;5.070;2023-09-12T12:43:42;101067.78;;;27.79
77599;BMP280;66758;52.078;5.070;2023-09-12T12:46:12;100950.44;;;26.56
77599;BMP280;66758;52.078;5.070;2023-09-12T12:48:43;100719.81;;;25.36
77599;BMP280;66758;52.078;5.070;2023-09-12T12:53:43;100754.09;;;27.14
77599;BMP280;66758;52.078;5.070;2023-09-12T12:56:12;100554.97;;;24.45
77599;BMP280;66758;52.078;5.070;2023-09-12T12:58:39;99113.63;;;23.89
77599;BMP280;66758;52.078;5.070;2023-09-12T13:01:04;96908.78;;;23.65
77599;BMP280;66758;52.078;5.070;2023-09-12T13:03:29;96486.16;;;23.49
77599;BMP280;66758;52.078;5.070;2023-09-12T13:05:56;96407.25;;;23.64
77599;BMP280;66758;52.078;5.070;2023-09-12T13:08:21;96396.09;;;23.72
77599;BMP280;66758;52.078;5.070;2023-09-12T13:10:47;96324.94;;;23.88
77599;BMP280;66758;52.078;5.070;2023-09-12T13:13:12;96237.81;;;24.52
77599;BMP280;66758;52.078;5.070;2023-09-12T13:15:37;96221.91;;;24.62
77599;BMP280;66758;52.078;5.070;2023-09-12T13:18:03;96313.78;;;23.57
77599;BMP280;66758;52.078;5.070;2023-09-12T13:20:29;96550.00;;;23.89
77599;BMP280;66758;52.078;5.070;2023-09-12T13:22:55;96480.78;;;24.33
77599;BMP280;66758;52.078;5.070;2023-09-12T13:25:21;96326.41;;;24.27
77599;BMP280;66758;52.078;5.070;2023-09-12T13:27:49;96189.03;;;24.70
77599;BMP280;66758;52.078;5.070;2023-09-12T13:30:15;96078.09;;;24.90
77599;BMP280;66758;52.078;5.070;2023-09-12T13:32:41;96397.19;;;25.62
77599;BMP280;66758;52.078;5.070;2023-09-12T13:35:06;98322.13;;;27.30
77599;BMP280;66758;52.078;5.070;2023-09-12T13:37:33;99118.41;;;29.12
77599;BMP280;66758;52.078;5.070;2023-09-12T13:39:58;100792.72;;;30.09
77599;BMP280;66758;52.078;5.070;2023-09-12T13:42:24;100663.44;;;27.19
77599;BMP280;66758;52.078;5.070;2023-09-12T13:44:51;100818.66;;;29.06
77599;BMP280;66758;52.078;5.070;2023-09-12T13:47:17;100819.22;;;31.16
77599;BMP280;66758;52.078;5.070;2023-09-12T13:49:47;101073.59;;;29.62
77599;BMP280;66758;52.078;5.070;2023-09-12T13:52:13;101061.88;;;30.38
77599;BMP280;66758;52.078;5.070;2023-09-12T13:54:40;101248.19;;;32.09
77599;BMP280;66758;52.078;5.070;2023-09-12T13:57:06;101023.03;;;27.81
77599;BMP280;66758;52.078;5.070;2023-09-12T13:59:31;100794.75;;;27.61
77599;BMP280;66758;52.078;5.070;2023-09-12T14:01:58;100730.56;;;27.03
77599;BMP280;66758;52.078;5.070;2023-09-12T14:04:23;100605.09;;;25.74
77599;BMP280;66758;52.078;5.070;2023-09-12T14:06:48;100439.44;;;26.16
77599;BMP280;66758;52.078;5.070;2023-09-12T14:09:14;100268.72;;;25.34
77599;BMP280;66758;52.078;5.070;2023-09-12T14:11:40;100065.47;;;25.06
77599;BMP280;66758;52.078;5.070;2023-09-12T14:14:06;99907.50;;;24.94